sensor_id;sensor_type;location;lat;lon;timestamp;pressure;altitude;pressure_sealevel;temperature;humidity
12913;BME280;6524;51.368;11.984;2023-07-16T02:41:37;156340.31;;;16.44;82.87
12913;BME280;6524;51.368;11.984;2023-07-16T04:04:11;156791.72;;;18.20;72.91
12913;BME280;6524;51.368;11.984;2023-07-16T04:09:11;156794.41;;;18.21;72.99
12913;BME280;6524;51.368;11.984;2023-07-16T04:14:11;156772.06;;;18.12;73.66
12913;BME280;6524;51.368;11.984;2023-07-16T04:19:12;156749.75;;;18.03;73.25
12913;BME280;6524;51.368;11.984;2023-07-16T04:24:12;156799.59;;;18.23;73.35
12913;BME280;6524;51.368;11.984;2023-07-16T04:29:12;156776.03;;;18.14;73.23
12913;BME280;6524;51.368;11.984;2023-07-16T04:34:12;156769.47;;;18.11;73.54
12913;BME280;6524;51.368;11.984;2023-07-16T04:39:13;156854.75;;;18.44;72.05
12913;BME280;6524;51.368;11.984;2023-07-16T04:44:13;156786.53;;;18.18;73.18
12913;BME280;6524;51.368;11.984;2023-07-16T04:49:13;156607.97;;;17.48;75.54
12913;BME280;6524;51.368;11.984;2023-07-16T04:54:14;156739.25;;;17.99;74.23
12913;BME280;6524;51.368;11.984;2023-07-16T04:59:14;156715.63;;;17.90;74.59
12913;BME280;6524;51.368;11.984;2023-07-16T05:04:14;156844.28;;;18.40;72.42
12913;BME280;6524;51.368;11.984;2023-07-16T05:09:15;156676.19;;;17.75;74.96
12913;BME280;6524;51.368;11.984;2023-07-16T05:14:15;156597.47;;;17.44;76.22
12913;BME280;6524;51.368;11.984;2023-07-16T05:19:15;156634.22;;;17.58;75.53
12913;BME280;6524;51.368;11.984;2023-07-16T05:24:15;156728.78;;;17.95;73.13
12913;BME280;6524;51.368;11.984;2023-07-16T05:29:16;156668.31;;;17.72;73.75
12913;BME280;6524;51.368;11.984;2023-07-16T05:34:16;156815.38;;;18.29;71.34
12913;BME280;6524;51.368;11.984;2023-07-16T05:39:16;156702.47;;;17.85;72.87
12913;BME280;6524;51.368;11.984;2023-07-16T05:44:17;156923.09;;;18.71;71.24
12913;BME280;6524;51.368;11.984;2023-07-16T05:49:17;156869.25;;;18.50;68.11
12913;BME280;6524;51.368;11.984;2023-07-16T05:54:18;156895.50;;;18.60;69.00
12913;BME280;6524;51.368;11.984;2023-07-16T05:59:18;156974.31;;;18.91;66.10
12913;BME280;6524;51.368;11.984;2023-07-16T06:04:19;156875.84;;;18.52;66.34
12913;BME280;6524;51.368;11.984;2023-07-16T06:09:19;157050.56;;;19.20;62.78
12913;BME280;6524;51.368;11.984;2023-07-16T06:14:20;157120.16;;;19.48;61.62
12913;BME280;6524;51.368;11.984;2023-07-16T06:19:20;157177.94;;;19.70;59.57
12913;BME280;6524;51.368;11.984;2023-07-16T06:24:21;157298.91;;;20.17;56.92
12913;BME280;6524;51.368;11.984;2023-07-16T06:29:21;157298.91;;;20.17;56.54
12913;BME280;6524;51.368;11.984;2023-07-16T06:34:25;157338.34;;;20.32;55.29
12913;BME280;6524;51.368;11.984;2023-07-16T06:39:26;157439.63;;;20.72;54.90
12913;BME280;6524;51.368;11.984;2023-07-16T06:44:26;157372.59;;;20.46;54.97
12913;BME280;6524;51.368;11.984;2023-07-16T06:49:27;157459.31;;;20.79;53.23
12913;BME280;6524;51.368;11.984;2023-07-16T06:54:27;157555.38;;;21.17;53.09
12913;BME280;6524;51.368;11.984;2023-07-16T06:59:28;157388.38;;;20.52;53.85
12913;BME280;6524;51.368;11.984;2023-07-16T07:04:28;157511.94;;;21.00;53.21
12913;BME280;6524;51.368;11.984;2023-07-16T07:09:29;157422.53;;;20.65;53.37
12913;BME280;6524;51.368;11.984;2023-07-16T07:14:29;157440.94;;;20.72;53.63
12913;BME280;6524;51.368;11.984;2023-07-16T07:19:30;157327.84;;;20.28;54.02
12913;BME280;6524;51.368;11.984;2023-07-16T07:24:32;157267.41;;;20.05;52.89
12913;BME280;6524;51.368;11.984;2023-07-16T07:29:32;157217.44;;;19.85;53.22
12913;BME280;6524;51.368;11.984;2023-07-16T07:34:33;157172.72;;;19.68;52.34
12913;BME280;6524;51.368;11.984;2023-07-16T07:39:34;157241.09;;;19.95;49.75
12913;BME280;6524;51.368;11.984;2023-07-16T07:44:34;157333.13;;;20.30;49.72
12913;BME280;6524;51.368;11.984;2023-07-16T07:49:35;157256.84;;;20.01;48.76
12913;BME280;6524;51.368;11.984;2023-07-16T07:54:35;157409.38;;;20.60;48.70
12913;BME280;6524;51.368;11.984;2023-07-16T07:59:36;157543.56;;;21.12;47.02
12913;BME280;6524;51.368;11.984;2023-07-16T08:04:36;157577.75;;;21.25;45.92
12913;BME280;6524;51.368;11.984;2023-07-16T08:09:37;157517.28;;;21.02;44.74
12913;BME280;6524;51.368;11.984;2023-07-16T08:14:38;157454.09;;;20.77;42.86
12913;BME280;6524;51.368;11.984;2023-07-16T08:19:38;157506.66;;;20.98;43.59
12913;BME280;6524;51.368;11.984;2023-07-16T08:24:39;157472.50;;;20.85;42.05
12913;BME280;6524;51.368;11.984;2023-07-16T08:29:40;157571.16;;;21.23;41.75
12913;BME280;6524;51.368;11.984;2023-07-16T08:34:40;157697.50;;;21.72;42.10
12913;BME280;6524;51.368;11.984;2023-07-16T08:39:41;157867.28;;;22.38;40.42
12913;BME280;6524;51.368;11.984;2023-07-16T08:44:42;157830.41;;;22.24;41.02
12913;BME280;6524;51.368;11.984;2023-07-16T08:49:53;157752.75;;;21.93;40.41
12913;BME280;6524;51.368;11.984;2023-07-16T08:54:56;157622.47;;;21.43;40.74
12913;BME280;6524;51.368;11.984;2023-07-16T08:59:58;157456.72;;;20.78;42.04
12913;BME280;6524;51.368;11.984;2023-07-16T09:04:59;157685.63;;;21.67;41.09
12913;BME280;6524;51.368;11.984;2023-07-16T09:10:16;157722.47;;;21.82;41.08
12913;BME280;6524;51.368;11.984;2023-07-16T09:15:18;157848.84;;;22.31;38.72
12913;BME280;6524;51.368;11.984;2023-07-16T09:20:23;157911.97;;;22.55;38.15
12913;BME280;6524;51.368;11.984;2023-07-16T09:26:05;158012.09;;;22.94;36.83
12913;BME280;6524;51.368;11.984;2023-07-16T09:31:07;158058.19;;;23.12;35.71
12913;BME280;6524;51.368;11.984;2023-07-16T09:36:08;158196.50;;;23.66;36.25
12913;BME280;6524;51.368;11.984;2023-07-16T09:41:08;158213.59;;;23.72;34.04
12913;BME280;6524;51.368;11.984;2023-07-16T09:46:09;158162.22;;;23.52;34.30
12913;BME280;6524;51.368;11.984;2023-07-16T09:51:11;158268.97;;;23.94;33.94
12913;BME280;6524;51.368;11.984;2023-07-16T09:56:13;158220.19;;;23.75;34.55
12913;BME280;6524;51.368;11.984;2023-07-16T10:01:14;158257.09;;;23.89;33.12
12913;BME280;6524;51.368;11.984;2023-07-16T10:06:14;158373.03;;;24.34;32.44
12913;BME280;6524;51.368;11.984;2023-07-16T10:11:16;158147.78;;;23.47;33.34
12913;BME280;6524;51.368;11.984;2023-07-16T10:16:21;158282.13;;;23.99;31.92
12913;BME280;6524;51.368;11.984;2023-07-16T10:21:25;158332.16;;;24.18;31.61
12913;BME280;6524;51.368;11.984;2023-07-16T10:26:27;158188.59;;;23.63;32.18
12913;BME280;6524;51.368;11.984;2023-07-16T10:31:33;158448.19;;;24.63;31.71
12913;BME280;6524;51.368;11.984;2023-07-16T10:36:40;158462.69;;;24.69;30.65
12913;BME280;6524;51.368;11.984;2023-07-16T10:41:40;158383.56;;;24.38;30.35
12913;BME280;6524;51.368;11.984;2023-07-16T10:46:42;158351.94;;;24.26;31.12
12913;BME280;6524;51.368;11.984;2023-07-16T10:51:42;158415.25;;;24.51;30.51
12913;BME280;6524;51.368;11.984;2023-07-16T10:56:43;158605.03;;;25.24;30.26
12913;BME280;6524;51.368;11.984;2023-07-16T11:01:44;158602.41;;;25.23;29.73
12913;BME280;6524;51.368;11.984;2023-07-16T11:06:44;158529.88;;;24.95;30.06
12913;BME280;6524;51.368;11.984;2023-07-16T11:11:45;158597.13;;;25.21;29.31
12913;BME280;6524;51.368;11.984;2023-07-16T11:16:45;158701.31;;;25.61;29.30
12913;BME280;6524;51.368;11.984;2023-07-16T11:21:47;158860.91;;;26.23;29.29
12913;BME280;6524;51.368;11.984;2023-07-16T11:26:51;158702.63;;;25.62;29.12
12913;BME280;6524;51.368;11.984;2023-07-16T11:31:52;158552.34;;;25.04;29.38
12913;BME280;6524;51.368;11.984;2023-07-16T11:36:53;158607.72;;;25.25;29.87
12913;BME280;6524;51.368;11.984;2023-07-16T11:41:57;158736.94;;;25.75;29.67
12913;BME280;6524;51.368;11.984;2023-07-16T11:46:58;158726.38;;;25.71;28.89
12913;BME280;6524;51.368;11.984;2023-07-16T11:51:59;158744.81;;;25.78;28.44
12913;BME280;6524;51.368;11.984;2023-07-16T11:56:59;158623.47;;;25.31;29.33
12913;BME280;6524;51.368;11.984;2023-07-16T12:02:00;158453.41;;;24.65;29.64
12913;BME280;6524;51.368;11.984;2023-07-16T12:07:00;158561.56;;;25.07;29.36
12913;BME280;6524;51.368;11.984;2023-07-16T12:12:01;158647.22;;;25.40;28.80
12913;BME280;6524;51.368;11.984;2023-07-16T12:17:02;158636.66;;;25.36;28.60
12913;BME280;6524;51.368;11.984;2023-07-16T12:22:03;158739.56;;;25.76;29.01
12913;BME280;6524;51.368;11.984;2023-07-16T12:27:04;159032.44;;;26.90;27.47
12913;BME280;6524;51.368;11.984;2023-07-16T12:32:04;158967.78;;;26.65;26.43
12913;BME280;6524;51.368;11.984;2023-07-16T12:37:05;158929.47;;;26.50;25.68
12913;BME280;6524;51.368;11.984;2023-07-16T12:42:07;158998.16;;;26.76;26.54
12913;BME280;6524;51.368;11.984;2023-07-16T12:47:07;159045.66;;;26.95;26.69
12913;BME280;6524;51.368;11.984;2023-07-16T12:52:10;159027.13;;;26.88;24.89
12913;BME280;6524;51.368;11.984;2023-07-16T12:57:11;159109.03;;;27.19;25.11
12913;BME280;6524;51.368;11.984;2023-07-16T13:02:11;159082.59;;;27.09;24.41
12913;BME280;6524;51.368;11.984;2023-07-16T13:07:12;158838.50;;;26.15;26.26
12913;BME280;6524;51.368;11.984;2023-07-16T13:12:13;158995.47;;;26.75;24.98
12913;BME280;6524;51.368;11.984;2023-07-16T13:17:13;158903.13;;;26.40;25.43
12913;BME280;6524;51.368;11.984;2023-07-16T13:22:15;158874.06;;;26.28;25.78
12913;BME280;6524;51.368;11.984;2023-07-16T13:27:23;158987.59;;;26.72;25.30
12913;BME280;6524;51.368;11.984;2023-07-16T13:32:25;158909.72;;;26.42;25.01
12913;BME280;6524;51.368;11.984;2023-07-16T13:37:26;158839.81;;;26.15;25.73
12913;BME280;6524;51.368;11.984;2023-07-16T13:42:26;158765.91;;;25.86;25.55
12913;BME280;6524;51.368;11.984;2023-07-16T13:47:26;158817.38;;;26.06;25.26
12913;BME280;6524;51.368;11.984;2023-07-16T13:52:27;158818.72;;;26.07;24.56
12913;BME280;6524;51.368;11.984;2023-07-16T13:57:27;158868.84;;;26.26;24.98
12913;BME280;6524;51.368;11.984;2023-07-16T14:02:28;158916.31;;;26.45;24.48
12913;BME280;6524;51.368;11.984;2023-07-16T14:07:29;159033.75;;;26.90;24.66
12913;BME280;6524;51.368;11.984;2023-07-16T14:12:29;159039.03;;;26.92;24.27
12913;BME280;6524;51.368;11.984;2023-07-16T14:17:30;159069.44;;;27.04;24.42
12913;BME280;6524;51.368;11.984;2023-07-16T14:22:31;158867.53;;;26.26;25.02
12913;BME280;6524;51.368;11.984;2023-07-16T14:27:31;158690.78;;;25.57;24.56
12913;BME280;6524;51.368;11.984;2023-07-16T14:32:33;158813.44;;;26.05;25.00
12913;BME280;6524;51.368;11.984;2023-07-16T14:37:34;158736.94;;;25.75;24.15
12913;BME280;6524;51.368;11.984;2023-07-16T14:42:34;158707.91;;;25.64;24.56
12913;BME280;6524;51.368;11.984;2023-07-16T14:47:35;158781.75;;;25.93;24.32
12913;BME280;6524;51.368;11.984;2023-07-16T14:52:35;158990.22;;;26.73;24.05
12913;BME280;6524;51.368;11.984;2023-07-16T14:57:37;158893.88;;;26.36;24.32
12913;BME280;6524;51.368;11.984;2023-07-16T15:02:37;158763.31;;;25.85;24.29
12913;BME280;6524;51.368;11.984;2023-07-16T15:07:38;158738.25;;;25.76;24.67
12913;BME280;6524;51.368;11.984;2023-07-16T15:12:38;158681.56;;;25.54;24.17
12913;BME280;6524;51.368;11.984;2023-07-16T15:17:39;158586.59;;;25.17;24.54
12913;BME280;6524;51.368;11.984;2023-07-16T15:22:39;158470.59;;;24.72;24.92
12913;BME280;6524;51.368;11.984;2023-07-16T15:27:40;158502.16;;;24.84;25.22
12913;BME280;6524;51.368;11.984;2023-07-16T15:32:40;158475.84;;;24.74;25.09
12913;BME280;6524;51.368;11.984;2023-07-16T15:37:40;158475.84;;;24.74;24.42
12913;BME280;6524;51.368;11.984;2023-07-16T15:42:42;158510.09;;;24.87;25.48
12913;BME280;6524;51.368;11.984;2023-07-16T15:47:44;158433.69;;;24.58;25.95
12913;BME280;6524;51.368;11.984;2023-07-16T15:52:44;158294.00;;;24.03;26.40
12913;BME280;6524;51.368;11.984;2023-07-16T15:57:44;158321.63;;;24.14;25.60
12913;BME280;6524;51.368;11.984;2023-07-16T16:02:47;158349.34;;;24.25;25.76
12913;BME280;6524;51.368;11.984;2023-07-16T16:08:12;158367.75;;;24.32;25.96
12913;BME280;6524;51.368;11.984;2023-07-16T16:13:15;158394.09;;;24.42;25.94
12913;BME280;6524;51.368;11.984;2023-07-16T16:18:16;158388.81;;;24.40;25.99
12913;BME280;6524;51.368;11.984;2023-07-16T16:23:17;158375.66;;;24.35;25.97
12913;BME280;6524;51.368;11.984;2023-07-16T16:28:17;158301.91;;;24.07;25.53
12913;BME280;6524;51.368;11.984;2023-07-16T16:33:17;158275.53;;;23.96;26.03
12913;BME280;6524;51.368;11.984;2023-07-16T16:38:18;158315.03;;;24.12;25.72
12913;BME280;6524;51.368;11.984;2023-07-16T16:43:18;158226.75;;;23.77;25.67
12913;BME280;6524;51.368;11.984;2023-07-16T16:48:18;158296.63;;;24.05;26.08
12913;BME280;6524;51.368;11.984;2023-07-16T16:53:19;158229.41;;;23.78;26.58
12913;BME280;6524;51.368;11.984;2023-07-16T16:58:19;158295.31;;;24.04;26.27
12913;BME280;6524;51.368;11.984;2023-07-16T17:03:21;158220.19;;;23.75;26.81
12913;BME280;6524;51.368;11.984;2023-07-16T17:08:23;158218.84;;;23.74;26.71
12913;BME280;6524;51.368;11.984;2023-07-16T17:13:23;158201.72;;;23.68;27.09
12913;BME280;6524;51.368;11.984;2023-07-16T17:18:24;158175.41;;;23.57;27.10
12913;BME280;6524;51.368;11.984;2023-07-16T17:23:24;158208.31;;;23.70;27.48
12913;BME280;6524;51.368;11.984;2023-07-16T17:28:25;158133.28;;;23.41;27.72
12913;BME280;6524;51.368;11.984;2023-07-16T17:33:26;158162.22;;;23.52;27.92
12913;BME280;6524;51.368;11.984;2023-07-16T17:38:26;158133.28;;;23.41;28.00
12913;BME280;6524;51.368;11.984;2023-07-16T17:43:27;158122.75;;;23.37;28.14
12913;BME280;6524;51.368;11.984;2023-07-16T17:48:27;158054.22;;;23.10;27.80
12913;BME280;6524;51.368;11.984;2023-07-16T17:53:28;158046.31;;;23.07;27.49
12913;BME280;6524;51.368;11.984;2023-07-16T17:58:28;157967.28;;;22.77;27.81
12913;BME280;6524;51.368;11.984;2023-07-16T18:03:32;157948.88;;;22.70;27.80
12913;BME280;6524;51.368;11.984;2023-07-16T18:08:32;157951.47;;;22.71;28.52
12913;BME280;6524;51.368;11.984;2023-07-16T18:13:32;157967.28;;;22.77;28.29
12913;BME280;6524;51.368;11.984;2023-07-16T18:18:33;157917.28;;;22.57;29.33
12913;BME280;6524;51.368;11.984;2023-07-16T18:23:33;157923.84;;;22.60;28.76
12913;BME280;6524;51.368;11.984;2023-07-16T18:28:34;157859.38;;;22.35;28.87
12913;BME280;6524;51.368;11.984;2023-07-16T18:33:34;157856.75;;;22.34;28.97
12913;BME280;6524;51.368;11.984;2023-07-16T18:38:34;157797.47;;;22.11;29.62
12913;BME280;6524;51.368;11.984;2023-07-16T18:43:34;157796.16;;;22.10;29.74
12913;BME280;6524;51.368;11.984;2023-07-16T18:48:35;157725.09;;;21.83;29.85
12913;BME280;6524;51.368;11.984;2023-07-16T18:53:36;157864.66;;;22.37;32.32
12913;BME280;6524;51.368;11.984;2023-07-16T18:58:36;157827.78;;;22.23;31.69
12913;BME280;6524;51.368;11.984;2023-07-16T19:03:36;157811.94;;;22.16;32.76
12913;BME280;6524;51.368;11.984;2023-07-16T19:08:37;157782.97;;;22.05;31.99
12913;BME280;6524;51.368;11.984;2023-07-16T19:13:37;157764.56;;;21.98;32.02
12913;BME280;6524;51.368;11.984;2023-07-16T19:18:37;157664.56;;;21.59;32.78
12913;BME280;6524;51.368;11.984;2023-07-16T19:23:37;157594.84;;;21.32;33.22
12913;BME280;6524;51.368;11.984;2023-07-16T19:28:38;157480.38;;;20.88;33.96
12913;BME280;6524;51.368;11.984;2023-07-16T19:33:38;157433.06;;;20.69;35.26
12913;BME280;6524;51.368;11.984;2023-07-16T19:38:42;157362.06;;;20.42;34.77
12913;BME280;6524;51.368;11.984;2023-07-16T19:43:42;157314.69;;;20.23;35.88
12913;BME280;6524;51.368;11.984;2023-07-16T19:48:43;157266.03;;;20.04;36.53
12913;BME280;6524;51.368;11.984;2023-07-16T19:53:43;157272.63;;;20.07;35.55
12913;BME280;6524;51.368;11.984;2023-07-16T19:58:43;157199.06;;;19.78;36.46
12913;BME280;6524;51.368;11.984;2023-07-16T20:03:43;157147.78;;;19.58;36.89
12913;BME280;6524;51.368;11.984;2023-07-16T20:08:44;157070.25;;;19.28;36.98
12913;BME280;6524;51.368;11.984;2023-07-16T20:13:45;157086.00;;;19.34;36.74
12913;BME280;6524;51.368;11.984;2023-07-16T20:18:46;157001.91;;;19.02;36.62
12913;BME280;6524;51.368;11.984;2023-07-16T20:23:46;157091.28;;;19.36;37.25
12913;BME280;6524;51.368;11.984;2023-07-16T20:28:47;156951.97;;;18.82;37.47
12913;BME280;6524;51.368;11.984;2023-07-16T20:33:48;156954.63;;;18.83;38.00
12913;BME280;6524;51.368;11.984;2023-07-16T20:38:48;156892.91;;;18.59;37.75
12913;BME280;6524;51.368;11.984;2023-07-16T20:43:48;156902.09;;;18.63;38.19
12913;BME280;6524;51.368;11.984;2023-07-16T20:48:49;156904.75;;;18.64;38.08
12913;BME280;6524;51.368;11.984;2023-07-16T20:53:50;156860.03;;;18.46;38.67
12913;BME280;6524;51.368;11.984;2023-07-16T20:58:50;156839.00;;;18.38;38.49
12913;BME280;6524;51.368;11.984;2023-07-16T21:03:50;156852.16;;;18.43;39.39
12913;BME280;6524;51.368;11.984;2023-07-16T21:08:52;156860.03;;;18.46;41.23
12913;BME280;6524;51.368;11.984;2023-07-16T21:13:52;156854.75;;;18.44;43.07
12913;BME280;6524;51.368;11.984;2023-07-16T21:18:53;156856.06;;;18.45;43.91
12913;BME280;6524;51.368;11.984;2023-07-16T21:23:53;156836.41;;;18.37;44.42
12913;BME280;6524;51.368;11.984;2023-07-16T21:28:53;156736.66;;;17.98;45.69
12913;BME280;6524;51.368;11.984;2023-07-16T21:33:54;156752.41;;;18.04;46.31
12913;BME280;6524;51.368;11.984;2023-07-16T21:38:54;156739.25;;;17.99;46.71
12913;BME280;6524;51.368;11.984;2023-07-16T21:43:55;156718.25;;;17.91;46.01
12913;BME280;6524;51.368;11.984;2023-07-16T21:48:55;156710.34;;;17.88;46.01
12913;BME280;6524;51.368;11.984;2023-07-16T21:53:56;156663.06;;;17.70;46.06
12913;BME280;6524;51.368;11.984;2023-07-16T21:58:56;156615.84;;;17.51;45.94
12913;BME280;6524;51.368;11.984;2023-07-16T22:03:57;156613.19;;;17.50;46.20
12913;BME280;6524;51.368;11.984;2023-07-16T22:08:58;156584.38;;;17.39;46.56
12913;BME280;6524;51.368;11.984;2023-07-16T22:13:59;156642.09;;;17.61;45.75
12913;BME280;6524;51.368;11.984;2023-07-16T22:19:01;156639.47;;;17.60;46.23
12913;BME280;6524;51.368;11.984;2023-07-16T22:24:03;156579.09;;;17.37;46.46
12913;BME280;6524;51.368;11.984;2023-07-16T22:29:07;156585.66;;;17.39;46.93
12913;BME280;6524;51.368;11.984;2023-07-16T22:34:11;156545.00;;;17.24;47.42
12913;BME280;6524;51.368;11.984;2023-07-16T22:39:16;156518.78;;;17.13;48.41
12913;BME280;6524;51.368;11.984;2023-07-16T22:44:16;156451.78;;;16.87;47.65
12913;BME280;6524;51.368;11.984;2023-07-16T22:49:17;156443.91;;;16.84;47.49
12913;BME280;6524;51.368;11.984;2023-07-16T22:54:17;156437.34;;;16.82;46.96
12913;BME280;6524;51.368;11.984;2023-07-16T22:59:18;156464.94;;;16.92;46.31
12913;BME280;6524;51.368;11.984;2023-07-16T23:04:18;156417.69;;;16.74;46.63
12913;BME280;6524;51.368;11.984;2023-07-16T23:09:18;156432.13;;;16.80;46.35
12913;BME280;6524;51.368;11.984;2023-07-16T23:14:19;156379.66;;;16.59;46.87
12913;BME280;6524;51.368;11.984;2023-07-16T23:19:19;156353.44;;;16.49;47.27
12913;BME280;6524;51.368;11.984;2023-07-16T23:24:19;156319.31;;;16.36;46.67
12913;BME280;6524;51.368;11.984;2023-07-16T23:29:20;156337.69;;;16.43;46.08
12913;BME280;6524;51.368;11.984;2023-07-16T23:34:20;156353.44;;;16.49;46.09
12913;BME280;6524;51.368;11.984;2023-07-16T23:39:21;156319.31;;;16.36;46.24
12913;BME280;6524;51.368;11.984;2023-07-16T23:44:24;156262.94;;;16.14;47.06
12913;BME280;6524;51.368;11.984;2023-07-16T23:49:28;156274.72;;;16.18;48.10
12913;BME280;6524;51.368;11.984;2023-07-16T23:54:28;156294.41;;;16.26;48.74
12913;BME280;6524;51.368;11.984;2023-07-16T23:59:30;156230.16;;;16.01;48.61
